SBSN/STM METAR and TAF weather

Enter ICAO airport designator
Station Type Date Time Source
SBSN METAR 2020/07/14 21:00 UTC NOAA

SBSN 142100Z 16002KT 9999 FEW023 BKN100 29/25 Q1011


Station Type Date Time Source
SBSN Decoded METAR 2020/07/14 21:00 UTC NOAA

Santarem-Aeroporto, Brazil (SBSN) 02-26S 054-43W 72M
Jul 14, 2020 - 05:00 PM EDT / 2020.07.14 2100 UTC
Wind: from the SSE (160 degrees) at 2 MPH (2 KT):0
Visibility: greater than 7 mile(s):0
Sky conditions: mostly cloudy
Temperature: 84 F (29 C)
Dew Point: 77 F (25 C)
Relative Humidity: 79%
Pressure (altimeter): 29.85 in. Hg (1011 hPa)
ob: SBSN 142100Z 16002KT 9999 FEW023 BKN100 29/25 Q1011
cycle: 21

Station Type Date Time Source
SBSN TAF 2020/07/14 18:39 UTC NOAA

TAF SBSN 141500Z 1418/1518 09007KT 9999 SCT020 FEW025TCU TN25/1507Z TX31/1517Z
BECMG 1500/1501 SCT010 PROB30 1510/1513 BKN010
BECMG 1514/1515 SCT020 FEW025TCU
RMK PEU

Example: see airport list